createdAt,value
2023-04-07T00:00:08.937Z,100.00
2023-04-07T00:06:50.857Z,100.00
2023-04-07T00:13:44.756Z,100.00
2023-04-07T00:16:15.754Z,100.00
2023-04-07T00:22:57.418Z,100.00
2023-04-07T00:25:26.903Z,100.00
2023-04-07T00:27:56.424Z,100.00
2023-04-07T00:30:25.721Z,100.00
2023-04-07T00:32:56.392Z,100.00
2023-04-07T00:35:25.658Z,100.00
2023-04-07T00:37:54.943Z,100.00
2023-04-07T00:40:23.940Z,100.00
2023-04-07T00:42:53.848Z,100.00
2023-04-07T00:45:22.940Z,100.00
2023-04-07T00:47:52.170Z,100.00
2023-04-07T00:54:35.293Z,100.00
2023-04-07T00:57:04.584Z,100.00
2023-04-07T01:03:56.864Z,100.00
2023-04-07T01:06:29.833Z,100.00
2023-04-07T01:13:27.107Z,100.00
2023-04-07T01:15:58.200Z,100.00
2023-04-07T01:18:31.031Z,100.00
2023-04-07T01:21:17.538Z,100.00
2023-04-07T01:28:32.321Z,100.00
2023-04-07T01:35:21.596Z,100.00
2023-04-07T01:37:52.221Z,100.00
2023-04-07T01:44:39.780Z,100.00
2023-04-07T01:47:09.143Z,100.00
2023-04-07T01:54:04.327Z,100.00
2023-04-07T01:56:33.523Z,100.00
2023-04-07T01:59:02.625Z,100.00
2023-04-07T02:01:32.202Z,100.00
2023-04-07T02:04:08.805Z,100.00
2023-04-07T02:06:47.217Z,100.00
2023-04-07T02:09:18.247Z,100.00
2023-04-07T02:11:49.836Z,100.00
2023-04-07T02:14:21.762Z,100.00
2023-04-07T02:16:51.596Z,100.00
2023-04-07T02:19:21.174Z,100.00
2023-04-07T02:21:51.094Z,100.00
2023-04-07T02:24:23.459Z,100.00
2023-04-07T02:26:52.864Z,100.00
2023-04-07T02:29:22.161Z,100.00
2023-04-07T02:31:51.276Z,100.00
2023-04-07T02:34:20.554Z,100.00
2023-04-07T02:36:49.465Z,100.00
2023-04-07T02:39:18.538Z,100.00
2023-04-07T02:41:49.271Z,100.00
2023-04-07T02:44:18.774Z,100.00
2023-04-07T02:46:48.297Z,100.00
2023-04-07T02:49:17.372Z,100.00
2023-04-07T02:51:47.180Z,100.00
2023-04-07T02:54:16.590Z,100.00
2023-04-07T03:00:52.742Z,100.00
2023-04-07T03:03:22.270Z,100.00
2023-04-07T03:10:10.331Z,100.00
2023-04-07T03:12:39.423Z,100.00
2023-04-07T03:19:28.721Z,100.00
2023-04-07T03:26:10.943Z,100.00
2023-04-07T03:28:40.243Z,100.00
2023-04-07T03:35:35.072Z,100.00
2023-04-07T03:38:05.598Z,100.00
2023-04-07T03:44:53.759Z,100.00
2023-04-07T03:47:23.057Z,100.00
2023-04-07T03:49:52.352Z,100.00
2023-04-07T03:52:22.985Z,100.00
2023-04-07T03:54:52.083Z,100.00
2023-04-07T03:57:21.485Z,100.00
2023-04-07T03:59:52.840Z,100.00
2023-04-07T04:02:22.335Z,100.00
2023-04-07T04:04:51.927Z,100.00
2023-04-07T04:11:29.051Z,100.00
2023-04-07T04:13:58.858Z,100.00
2023-04-07T04:20:46.525Z,100.00
2023-04-07T04:23:15.503Z,100.00
2023-04-07T04:30:05.511Z,100.00
2023-04-07T04:36:50.864Z,100.00
2023-04-07T04:39:20.430Z,100.00
2023-04-07T04:46:09.911Z,100.00
2023-04-07T04:48:39.217Z,100.00
2023-04-07T04:55:26.564Z,100.00
2023-04-07T04:57:56.884Z,100.00
2023-04-07T05:00:26.500Z,100.00
2023-04-07T05:07:16.293Z,100.00
2023-04-07T05:09:45.702Z,100.00
2023-04-07T05:16:33.701Z,100.00
2023-04-07T05:19:05.206Z,100.00
2023-04-07T05:25:54.087Z,100.00
2023-04-07T05:32:49.256Z,100.00
2023-04-07T05:35:18.618Z,100.00
2023-04-07T05:42:03.401Z,100.00
2023-04-07T05:44:32.805Z,100.00
2023-04-07T05:51:13.903Z,100.00
2023-04-07T05:53:49.502Z,100.00
2023-04-07T05:56:19.054Z,100.00
2023-04-07T05:58:49.823Z,100.00
2023-04-07T06:01:22.095Z,100.00
2023-04-07T06:08:06.842Z,100.00
2023-04-07T06:10:36.668Z,100.00
2023-04-07T06:17:26.173Z,100.00
2023-04-07T06:19:56.785Z,100.00
2023-04-07T06:26:44.638Z,100.00
2023-04-07T06:33:28.817Z,100.00
2023-04-07T06:35:58.639Z,100.00
2023-04-07T06:42:47.194Z,100.00
2023-04-07T06:45:16.492Z,100.00
2023-04-07T06:52:11.010Z,99.59
2023-04-07T07:03:42.754Z,100.00
2023-04-07T07:06:12.014Z,99.33
2023-04-07T07:13:01.723Z,86.79
2023-04-07T07:15:30.925Z,86.53
2023-04-07T07:18:00.437Z,82.96
2023-04-07T07:20:30.030Z,82.12
2023-04-07T07:23:03.436Z,83.45
2023-04-07T07:25:33.451Z,81.52
2023-04-07T07:28:04.378Z,77.21
2023-04-07T07:30:33.979Z,76.63
2023-04-07T07:33:03.358Z,76.51
2023-04-07T07:35:32.889Z,66.98
2023-04-07T07:38:02.800Z,55.99
2023-04-07T07:40:32.302Z,55.50
2023-04-07T07:43:04.157Z,55.32
2023-04-07T07:45:33.561Z,54.77
2023-04-07T07:48:03.170Z,52.57
2023-04-07T07:50:32.373Z,53.16
2023-04-07T07:53:01.854Z,52.35
2023-04-07T07:55:31.166Z,52.21
2023-04-07T07:58:00.669Z,51.11
2023-04-07T08:00:31.307Z,49.12
2023-04-07T08:03:00.996Z,48.81
2023-04-07T08:09:42.909Z,47.83
2023-04-07T08:12:12.424Z,48.11
2023-04-07T08:19:01.099Z,44.79
2023-04-07T08:21:30.505Z,46.12
2023-04-07T08:28:23.506Z,44.88
2023-04-07T08:30:52.784Z,46.27
2023-04-07T08:33:22.188Z,45.45
2023-04-07T08:35:52.839Z,43.22
2023-04-07T08:38:22.523Z,43.85
2023-04-07T08:40:55.709Z,44.37
2023-04-07T08:43:25.418Z,42.71
2023-04-07T08:45:55.434Z,43.00
2023-04-07T08:48:27.200Z,43.50
2023-04-07T08:55:27.950Z,41.63
2023-04-07T08:58:01.974Z,42.43
2023-04-07T09:04:49.611Z,42.90
2023-04-07T09:07:18.808Z,40.58
2023-04-07T09:14:02.263Z,41.95
2023-04-07T09:16:32.535Z,42.07
2023-04-07T09:19:02.743Z,43.66
2023-04-07T09:21:50.118Z,45.56
2023-04-07T09:28:42.899Z,48.90
2023-04-07T09:35:25.342Z,39.17
2023-04-07T09:38:06.831Z,39.82
2023-04-07T09:40:36.842Z,38.96
2023-04-07T09:43:07.186Z,38.52
2023-04-07T09:49:52.963Z,37.39
2023-04-07T09:52:26.884Z,40.22
2023-04-07T09:59:08.075Z,38.45
2023-04-07T10:01:38.806Z,40.60
2023-04-07T10:04:08.344Z,41.29
2023-04-07T10:06:38.340Z,40.41
2023-04-07T10:09:09.714Z,40.19
2023-04-07T10:15:44.630Z,38.28
2023-04-07T10:18:13.731Z,39.87
2023-04-07T10:25:07.128Z,40.27
2023-04-07T10:27:50.747Z,39.08
2023-04-07T10:34:58.583Z,38.10
2023-04-07T10:37:28.691Z,38.83
2023-04-07T10:44:05.388Z,37.43
2023-04-07T10:51:15.684Z,38.97
2023-04-07T10:54:29.048Z,38.85
2023-04-07T10:57:17.454Z,36.13
2023-04-07T11:00:18.081Z,37.65
2023-04-07T11:02:47.600Z,35.80
2023-04-07T11:09:23.262Z,35.21
2023-04-07T11:16:12.996Z,35.39
2023-04-07T11:18:43.068Z,33.93
2023-04-07T11:25:33.606Z,35.13
2023-04-07T11:28:03.636Z,37.93
2023-04-07T11:33:56.803Z,36.04
2023-04-07T11:40:44.957Z,37.20
2023-04-07T11:43:22.052Z,36.20
2023-04-07T11:50:17.493Z,38.83
2023-04-07T11:52:48.828Z,40.61
2023-04-07T11:55:22.523Z,42.45
2023-04-07T11:57:52.954Z,42.68
2023-04-07T12:00:22.865Z,41.15
2023-04-07T12:02:52.371Z,40.55
2023-04-07T12:05:23.205Z,41.41
2023-04-07T12:07:58.459Z,40.89
2023-04-07T12:10:28.468Z,39.16
2023-04-07T12:12:59.526Z,40.38
2023-04-07T12:15:29.004Z,39.43
2023-04-07T12:17:58.454Z,40.73
2023-04-07T12:20:29.134Z,40.27
2023-04-07T12:22:59.156Z,40.79
2023-04-07T12:25:29.088Z,40.52
2023-04-07T12:27:58.258Z,42.51
2023-04-07T12:30:27.788Z,42.12
2023-04-07T12:32:57.094Z,41.61
2023-04-07T12:35:27.922Z,40.86
2023-04-07T12:37:57.196Z,41.66
2023-04-07T12:40:27.619Z,42.56
2023-04-07T12:47:09.224Z,42.90
2023-04-07T12:49:38.820Z,42.99
2023-04-07T12:56:34.466Z,41.36
2023-04-07T12:59:04.286Z,38.42
2023-04-07T13:05:55.337Z,39.94
2023-04-07T13:08:24.632Z,39.09
2023-04-07T13:10:54.028Z,37.98
2023-04-07T13:13:24.962Z,39.32
2023-04-07T13:15:53.947Z,37.54
2023-04-07T13:18:23.572Z,39.09
2023-04-07T13:21:15.700Z,40.48
2023-04-07T13:23:43.643Z,41.94
2023-04-07T13:26:13.700Z,39.34
2023-04-07T13:28:46.312Z,41.08
2023-04-07T13:31:16.749Z,39.93
2023-04-07T13:33:46.650Z,40.32
2023-04-07T13:36:16.149Z,39.33
2023-04-07T13:38:45.696Z,36.58
2023-04-07T13:41:14.794Z,37.25
2023-04-07T13:43:45.865Z,38.75
2023-04-07T13:46:28.122Z,37.92
2023-04-07T13:48:59.186Z,38.15
2023-04-07T13:55:48.013Z,39.05
2023-04-07T14:07:25.508Z,38.16
2023-04-07T14:09:55.115Z,39.10
2023-04-07T14:16:43.275Z,40.83
2023-04-07T14:19:12.364Z,39.39
2023-04-07T14:26:11.878Z,39.25
2023-04-07T14:28:41.628Z,37.64
2023-04-07T14:31:16.229Z,40.30
2023-04-07T14:33:45.843Z,38.62
2023-04-07T14:36:17.008Z,37.09
2023-04-07T14:43:07.758Z,39.63
2023-04-07T14:45:37.530Z,38.60
2023-04-07T14:52:30.904Z,40.57
2023-04-07T14:55:00.725Z,39.73
2023-04-07T15:01:44.659Z,41.98
2023-04-07T15:04:14.133Z,40.81
2023-04-07T15:06:45.606Z,40.86
2023-04-07T15:09:16.165Z,40.43
2023-04-07T15:11:47.923Z,40.38
2023-04-07T15:14:17.332Z,40.86
2023-04-07T15:16:50.719Z,42.44
2023-04-07T15:19:20.220Z,41.63
2023-04-07T15:21:49.420Z,41.79
2023-04-07T15:24:19.942Z,40.45
2023-04-07T15:26:49.344Z,41.47
2023-04-07T15:29:18.756Z,42.04
2023-04-07T15:31:49.850Z,41.48
2023-04-07T15:34:20.195Z,40.86
2023-04-07T15:36:49.935Z,39.95
2023-04-07T15:43:32.049Z,40.10
2023-04-07T15:46:01.340Z,41.11
2023-04-07T15:52:50.433Z,40.12
2023-04-07T15:55:19.834Z,39.89
2023-04-07T15:57:49.433Z,42.22
2023-04-07T16:00:19.353Z,42.00
2023-04-07T16:02:48.768Z,43.74
2023-04-07T16:05:18.459Z,43.02
2023-04-07T16:07:48.158Z,43.42
2023-04-07T16:10:20.824Z,41.77
2023-04-07T16:12:50.443Z,42.24
2023-04-07T16:15:32.464Z,41.53
2023-04-07T16:18:07.879Z,42.26
2023-04-07T16:20:37.396Z,44.04
2023-04-07T16:23:06.408Z,43.19
2023-04-07T16:25:37.630Z,43.40
2023-04-07T16:28:06.618Z,43.89
2023-04-07T16:30:36.741Z,43.15
2023-04-07T16:33:05.936Z,43.45
2023-04-07T16:35:35.079Z,42.71
2023-04-07T16:38:06.452Z,43.83
2023-04-07T16:44:55.467Z,43.57
2023-04-07T16:47:28.465Z,44.75
2023-04-07T16:54:16.006Z,44.31
2023-04-07T17:01:11.495Z,44.18
2023-04-07T17:07:54.704Z,45.79
2023-04-07T17:14:46.336Z,46.32
2023-04-07T17:17:16.960Z,47.15
2023-04-07T17:24:05.138Z,48.09
2023-04-07T17:30:46.020Z,49.28
2023-04-07T17:33:16.757Z,49.90
2023-04-07T17:39:57.853Z,51.10
2023-04-07T17:42:26.831Z,51.18
2023-04-07T17:44:56.347Z,51.63
2023-04-07T17:47:25.601Z,51.66
2023-04-07T17:49:56.174Z,52.60
2023-04-07T17:52:25.777Z,52.60
2023-04-07T17:54:54.874Z,53.35
2023-04-07T17:57:24.479Z,53.69
2023-04-07T17:59:53.692Z,54.53
2023-04-07T18:02:23.302Z,54.91
2023-04-07T18:04:52.721Z,55.19
2023-04-07T18:11:41.981Z,54.56
2023-04-07T18:14:11.600Z,56.29
2023-04-07T18:20:59.444Z,56.08
2023-04-07T18:23:28.626Z,56.16
2023-04-07T18:30:24.482Z,55.48
2023-04-07T18:32:56.811Z,54.83
2023-04-07T18:35:31.734Z,54.95
2023-04-07T18:42:13.720Z,55.09
2023-04-07T18:44:42.798Z,55.93
2023-04-07T18:51:27.895Z,55.89
2023-04-07T18:54:02.922Z,55.94
2023-04-07T19:00:44.469Z,56.07
2023-04-07T19:07:40.996Z,56.93
2023-04-07T19:10:11.954Z,56.85
2023-04-07T19:16:54.835Z,56.49
2023-04-07T19:19:24.174Z,56.86
2023-04-07T19:21:53.169Z,56.15
2023-04-07T19:28:42.973Z,57.08
2023-04-07T19:31:12.197Z,57.36
2023-04-07T19:38:00.237Z,57.14
2023-04-07T19:40:31.681Z,57.47
2023-04-07T19:47:15.034Z,58.31
2023-04-07T19:49:44.222Z,61.24
2023-04-07T19:52:13.223Z,61.41
2023-04-07T19:54:43.748Z,61.81
2023-04-07T19:57:16.229Z,62.55
2023-04-07T19:59:46.038Z,62.13
2023-04-07T20:02:18.284Z,64.80
2023-04-07T20:04:48.131Z,65.62
2023-04-07T20:07:19.049Z,64.73
2023-04-07T20:09:51.320Z,65.42
2023-04-07T20:12:21.341Z,65.72
2023-04-07T20:14:52.170Z,66.51
2023-04-07T20:17:24.645Z,65.64
2023-04-07T20:19:57.477Z,67.10
2023-04-07T20:22:26.931Z,66.65
2023-04-07T20:24:56.740Z,67.38
2023-04-07T20:27:27.904Z,68.28
2023-04-07T20:34:12.268Z,70.16
2023-04-07T20:36:41.668Z,70.15
2023-04-07T20:43:28.835Z,69.84
2023-04-07T20:45:58.533Z,70.57
2023-04-07T20:52:47.500Z,73.85
2023-04-07T20:59:30.644Z,80.11
2023-04-07T21:01:59.978Z,80.88
2023-04-07T21:08:43.093Z,82.01
2023-04-07T21:11:12.087Z,82.98
2023-04-07T21:17:54.061Z,87.98
2023-04-07T21:20:24.079Z,82.60
2023-04-07T21:22:53.217Z,81.66
2023-04-07T21:29:43.330Z,91.58
2023-04-07T21:32:14.758Z,92.38
2023-04-07T21:39:08.456Z,93.58
2023-04-07T21:41:37.668Z,94.81
2023-04-07T21:48:23.832Z,96.19
2023-04-07T21:55:17.400Z,95.27
2023-04-07T21:57:47.033Z,94.89
2023-04-07T22:09:15.728Z,96.50
2023-04-07T22:11:46.150Z,95.30
2023-04-07T22:14:15.349Z,93.33
2023-04-07T22:16:44.541Z,93.62
2023-04-07T22:19:13.838Z,94.99
2023-04-07T22:21:42.932Z,96.01
2023-04-07T22:24:12.219Z,96.20
2023-04-07T22:26:42.572Z,96.52
2023-04-07T22:29:12.353Z,96.74
2023-04-07T22:31:41.402Z,97.77
2023-04-07T22:34:10.757Z,97.89
2023-04-07T22:40:52.060Z,99.58
2023-04-07T22:43:26.995Z,100.00
2023-04-07T22:50:15.054Z,100.00
2023-04-07T22:52:44.151Z,100.00
2023-04-07T22:55:13.554Z,100.00
2023-04-07T23:01:57.677Z,100.00
2023-04-07T23:04:28.857Z,100.00
2023-04-07T23:11:11.403Z,100.00
2023-04-07T23:13:40.394Z,100.00
2023-04-07T23:20:23.624Z,100.00
2023-04-07T23:22:57.226Z,100.00
2023-04-07T23:25:26.752Z,100.00
2023-04-07T23:27:56.553Z,100.00
2023-04-07T23:30:25.850Z,100.00
2023-04-07T23:37:14.324Z,100.00
2023-04-07T23:39:48.543Z,100.00
2023-04-07T23:46:38.041Z,100.00
2023-04-07T23:49:07.646Z,100.00
2023-04-07T23:56:04.111Z,100.00
2023-04-07T23:58:33.411Z,100.00
